sensor_id;sensor_type;location;lat;lon;timestamp;pressure;altitude;pressure_sealevel;temperature;humidity
11343;BME280;5726;42.160;24.746;2024-03-08T00:00:46;99756.41;;;9.06;100.00
11343;BME280;5726;42.160;24.746;2024-03-08T00:03:11;99756.28;;;9.31;100.00
11343;BME280;5726;42.160;24.746;2024-03-08T00:05:37;99750.41;;;9.29;100.00
11343;BME280;5726;42.160;24.746;2024-03-08T00:08:05;99754.75;;;9.10;100.00
11343;BME280;5726;42.160;24.746;2024-03-08T00:10:35;99754.75;;;9.10;100.00
11343;BME280;5726;42.160;24.746;2024-03-08T00:13:01;99750.72;;;9.18;100.00
11343;BME280;5726;42.160;24.746;2024-03-08T00:15:29;99751.03;;;9.11;100.00
11343;BME280;5726;42.160;24.746;2024-03-08T00:17:54;99751.53;;;9.23;100.00
11343;BME280;5726;42.160;24.746;2024-03-08T00:20:20;99745.91;;;9.25;100.00
11343;BME280;5726;42.160;24.746;2024-03-08T00:22:46;99743.38;;;8.80;100.00
11343;BME280;5726;42.160;24.746;2024-03-08T00:25:11;99735.81;;;9.02;100.00
11343;BME280;5726;42.160;24.746;2024-03-08T00:27:37;99742.44;;;9.19;100.00
11343;BME280;5726;42.160;24.746;2024-03-08T00:30:04;99741.88;;;9.22;100.00
11343;BME280;5726;42.160;24.746;2024-03-08T00:32:30;99748.88;;;9.13;100.00
11343;BME280;5726;42.160;24.746;2024-03-08T00:34:57;99744.28;;;9.24;100.00
11343;BME280;5726;42.160;24.746;2024-03-08T00:37:23;99746.25;;;8.99;100.00
11343;BME280;5726;42.160;24.746;2024-03-08T00:39:49;99747.72;;;9.34;100.00
11343;BME280;5726;42.160;24.746;2024-03-08T00:42:15;99745.16;;;9.04;100.00
11343;BME280;5726;42.160;24.746;2024-03-08T00:44:41;99746.19;;;9.18;100.00
11343;BME280;5726;42.160;24.746;2024-03-08T00:47:07;99750.72;;;9.18;100.00
11343;BME280;5726;42.160;24.746;2024-03-08T00:49:32;99748.28;;;9.26;100.00
11343;BME280;5726;42.160;24.746;2024-03-08T00:51:58;99749.41;;;9.10;100.00
11343;BME280;5726;42.160;24.746;2024-03-08T00:54:23;99747.81;;;9.14;100.00
11343;BME280;5726;42.160;24.746;2024-03-08T00:56:49;99753.69;;;9.21;100.00
11343;BME280;5726;42.160;24.746;2024-03-08T00:59:14;99742.25;;;8.96;100.00
11343;BME280;5726;42.160;24.746;2024-03-08T01:01:40;99744.38;;;9.04;100.00
11343;BME280;5726;42.160;24.746;2024-03-08T01:04:06;99734.94;;;9.16;100.00
11343;BME280;5726;42.160;24.746;2024-03-08T01:06:33;99738.19;;;9.08;100.00
11343;BME280;5726;42.160;24.746;2024-03-08T01:08:59;99741.88;;;9.22;100.00
11343;BME280;5726;42.160;24.746;2024-03-08T01:11:24;99742.22;;;9.06;100.00
11343;BME280;5726;42.160;24.746;2024-03-08T01:13:50;99736.13;;;8.91;100.00
11343;BME280;5726;42.160;24.746;2024-03-08T01:16:16;99737.72;;;8.87;100.00
11343;BME280;5726;42.160;24.746;2024-03-08T01:18:43;99735.81;;;9.02;100.00
11343;BME280;5726;42.160;24.746;2024-03-08T01:21:08;99726.69;;;9.13;100.00
11343;BME280;5726;42.160;24.746;2024-03-08T01:23:34;99729.59;;;9.21;100.00
11343;BME280;5726;42.160;24.746;2024-03-08T01:26:00;99729.44;;;8.88;100.00
11343;BME280;5726;42.160;24.746;2024-03-08T01:28:27;99730.19;;;8.99;100.00
11343;BME280;5726;42.160;24.746;2024-03-08T01:30:53;99741.94;;;9.12;100.00
11343;BME280;5726;42.160;24.746;2024-03-08T01:33:25;99733.41;;;9.05;100.00
11343;BME280;5726;42.160;24.746;2024-03-08T01:35:54;99736.69;;;8.83;100.00
11343;BME280;5726;42.160;24.746;2024-03-08T01:38:20;99739.59;;;8.86;100.00
11343;BME280;5726;42.160;24.746;2024-03-08T01:40:49;99742.53;;;8.90;100.00
11343;BME280;5726;42.160;24.746;2024-03-08T01:43:36;99748.09;;;9.03;100.00
11343;BME280;5726;42.160;24.746;2024-03-08T01:46:01;99746.03;;;8.90;100.00
11343;BME280;5726;42.160;24.746;2024-03-08T01:48:28;99748.94;;;8.94;100.00
11343;BME280;5726;42.160;24.746;2024-03-08T01:50:55;99739.34;;;8.88;100.00
11343;BME280;5726;42.160;24.746;2024-03-08T01:53:22;99753.72;;;9.02;100.00
11343;BME280;5726;42.160;24.746;2024-03-08T01:55:50;99750.03;;;8.88;100.00
11343;BME280;5726;42.160;24.746;2024-03-08T01:58:17;99750.03;;;8.88;100.00
11343;BME280;5726;42.160;24.746;2024-03-08T02:00:48;99739.09;;;8.84;100.00
11343;BME280;5726;42.160;24.746;2024-03-08T02:03:17;99738.28;;;8.84;100.00
11343;BME280;5726;42.160;24.746;2024-03-08T02:05:42;99744.94;;;8.91;100.00
11343;BME280;5726;42.160;24.746;2024-03-08T02:08:11;99744.75;;;8.68;100.00
11343;BME280;5726;42.160;24.746;2024-03-08T02:10:41;99740.47;;;8.67;100.00
11343;BME280;5726;42.160;24.746;2024-03-08T02:13:07;99741.47;;;8.81;100.00
11343;BME280;5726;42.160;24.746;2024-03-08T02:18:18;99741.50;;;8.66;100.00
11343;BME280;5726;42.160;24.746;2024-03-08T02:20:45;99751.69;;;8.59;100.00
11343;BME280;5726;42.160;24.746;2024-03-08T02:23:13;99742.81;;;8.83;100.00
11343;BME280;5726;42.160;24.746;2024-03-08T02:25:39;99741.50;;;8.66;100.00
11343;BME280;5726;42.160;24.746;2024-03-08T02:28:05;99755.41;;;8.83;100.00
11343;BME280;5726;42.160;24.746;2024-03-08T02:30:30;99752.75;;;8.73;100.00
11343;BME280;5726;42.160;24.746;2024-03-08T02:32:56;99742.06;;;8.63;100.00
11343;BME280;5726;42.160;24.746;2024-03-08T02:35:21;99741.00;;;8.64;100.00
11343;BME280;5726;42.160;24.746;2024-03-08T02:37:47;99742.34;;;8.66;100.00
11343;BME280;5726;42.160;24.746;2024-03-08T02:40:13;99741.00;;;8.59;100.00
11343;BME280;5726;42.160;24.746;2024-03-08T02:42:39;99736.16;;;8.66;100.00
11343;BME280;5726;42.160;24.746;2024-03-08T02:45:05;99747.38;;;8.78;100.00
11343;BME280;5726;42.160;24.746;2024-03-08T02:47:31;99746.63;;;8.53;100.00
11343;BME280;5726;42.160;24.746;2024-03-08T02:49:57;99753.28;;;8.80;100.00
11343;BME280;5726;42.160;24.746;2024-03-08T02:52:23;99753.00;;;8.76;100.00
11343;BME280;5726;42.160;24.746;2024-03-08T02:54:48;99751.16;;;8.57;100.00
11343;BME280;5726;42.160;24.746;2024-03-08T02:57:15;99761.06;;;8.57;100.00
11343;BME280;5726;42.160;24.746;2024-03-08T02:59:42;99756.50;;;8.57;100.00
11343;BME280;5726;42.160;24.746;2024-03-08T03:02:07;99752.25;;;8.26;100.00
11343;BME280;5726;42.160;24.746;2024-03-08T03:04:33;99749.59;;;8.16;100.00
11343;BME280;5726;42.160;24.746;2024-03-08T03:07:01;99747.44;;;8.43;100.00
11343;BME280;5726;42.160;24.746;2024-03-08T03:09:26;99749.84;;;8.35;100.00
11343;BME280;5726;42.160;24.746;2024-03-08T03:11:56;99751.19;;;8.32;100.00
11343;BME280;5726;42.160;24.746;2024-03-08T03:14:22;99751.16;;;8.03;100.00
11343;BME280;5726;42.160;24.746;2024-03-08T03:16:47;99759.69;;;8.09;100.00
11343;BME280;5726;42.160;24.746;2024-03-08T03:19:13;99760.28;;;8.11;100.00
11343;BME280;5726;42.160;24.746;2024-03-08T03:21:40;99762.41;;;8.14;100.00
11343;BME280;5726;42.160;24.746;2024-03-08T03:24:08;99763.41;;;7.89;100.00
11343;BME280;5726;42.160;24.746;2024-03-08T03:26:40;99761.84;;;8.12;100.00
11343;BME280;5726;42.160;24.746;2024-03-08T03:29:06;99769.88;;;8.17;100.00
11343;BME280;5726;42.160;24.746;2024-03-08T03:31:34;99759.75;;;8.29;100.00
11343;BME280;5726;42.160;24.746;2024-03-08T03:34:00;99766.41;;;8.37;100.00
11343;BME280;5726;42.160;24.746;2024-03-08T03:36:31;99764.00;;;8.15;100.00
11343;BME280;5726;42.160;24.746;2024-03-08T03:38:57;99769.59;;;8.04;100.00
11343;BME280;5726;42.160;24.746;2024-03-08T03:41:36;99763.97;;;8.06;100.00
11343;BME280;5726;42.160;24.746;2024-03-08T03:44:02;99773.09;;;8.19;100.00
11343;BME280;5726;42.160;24.746;2024-03-08T03:46:27;99775.72;;;8.05;100.00
11343;BME280;5726;42.160;24.746;2024-03-08T03:48:56;99776.81;;;8.18;100.00
11343;BME280;5726;42.160;24.746;2024-03-08T03:51:21;99773.63;;;8.16;100.00
11343;BME280;5726;42.160;24.746;2024-03-08T03:53:47;99779.50;;;8.23;100.00
11343;BME280;5726;42.160;24.746;2024-03-08T03:56:13;99778.97;;;8.11;100.00
11343;BME280;5726;42.160;24.746;2024-03-08T03:58:39;99780.84;;;8.16;100.00
11343;BME280;5726;42.160;24.746;2024-03-08T04:01:05;99780.31;;;8.19;100.00
11343;BME280;5726;42.160;24.746;2024-03-08T04:03:31;99773.03;;;8.05;100.00
11343;BME280;5726;42.160;24.746;2024-03-08T04:05:56;99783.66;;;7.80;100.00
11343;BME280;5726;42.160;24.746;2024-03-08T04:08:22;99787.94;;;7.76;100.00
11343;BME280;5726;42.160;24.746;2024-03-08T04:10:50;99778.09;;;7.86;100.00
11343;BME280;5726;42.160;24.746;2024-03-08T04:13:16;99776.72;;;7.74;100.00
11343;BME280;5726;42.160;24.746;2024-03-08T04:15:41;99783.13;;;7.83;100.00
11343;BME280;5726;42.160;24.746;2024-03-08T04:18:09;99780.69;;;7.66;100.00
11343;BME280;5726;42.160;24.746;2024-03-08T04:20:35;99783.69;;;7.90;100.00
11343;BME280;5726;42.160;24.746;2024-03-08T04:23:01;99791.97;;;7.88;100.00
11343;BME280;5726;42.160;24.746;2024-03-08T04:25:27;99786.91;;;7.92;100.00
11343;BME280;5726;42.160;24.746;2024-03-08T04:27:52;99789.03;;;7.90;100.00
11343;BME280;5726;42.160;24.746;2024-03-08T04:30:18;99792.19;;;7.72;100.00
11343;BME280;5726;42.160;24.746;2024-03-08T04:32:44;99781.56;;;7.82;100.00
11343;BME280;5726;42.160;24.746;2024-03-08T04:35:09;99795.13;;;7.70;100.00
11343;BME280;5726;42.160;24.746;2024-03-08T04:37:35;99799.09;;;7.58;100.00
11343;BME280;5726;42.160;24.746;2024-03-08T04:40:00;99792.16;;;7.57;100.00
11343;BME280;5726;42.160;24.746;2024-03-08T04:42:30;99786.88;;;7.77;100.00
11343;BME280;5726;42.160;24.746;2024-03-08T04:44:58;99788.97;;;7.65;100.00
11343;BME280;5726;42.160;24.746;2024-03-08T04:47:23;99803.97;;;7.81;100.00
11343;BME280;5726;42.160;24.746;2024-03-08T04:49:50;99793.06;;;7.97;100.00
11343;BME280;5726;42.160;24.746;2024-03-08T04:52:15;99794.91;;;7.92;100.00
11343;BME280;5726;42.160;24.746;2024-03-08T04:54:42;99800.72;;;7.64;100.00
11343;BME280;5726;42.160;24.746;2024-03-08T04:57:08;99808.94;;;7.53;100.00
11343;BME280;5726;42.160;24.746;2024-03-08T04:59:33;99799.63;;;7.60;100.00
11343;BME280;5726;42.160;24.746;2024-03-08T05:01:59;99810.69;;;8.03;100.00
11343;BME280;5726;42.160;24.746;2024-03-08T05:04:24;99806.72;;;8.30;100.00
11343;BME280;5726;42.160;24.746;2024-03-08T05:06:50;99808.63;;;8.45;100.00
11343;BME280;5726;42.160;24.746;2024-03-08T05:09:15;99812.09;;;8.70;100.00
11343;BME280;5726;42.160;24.746;2024-03-08T05:11:45;99813.69;;;8.61;100.00
11343;BME280;5726;42.160;24.746;2024-03-08T05:14:11;99819.84;;;8.37;100.00
11343;BME280;5726;42.160;24.746;2024-03-08T05:16:45;99820.28;;;7.99;100.00
11343;BME280;5726;42.160;24.746;2024-03-08T05:19:15;99822.59;;;7.61;100.00
11343;BME280;5726;42.160;24.746;2024-03-08T05:21:45;99828.72;;;7.57;100.00
11343;BME280;5726;42.160;24.746;2024-03-08T05:24:11;99829.44;;;7.37;100.00
11343;BME280;5726;42.160;24.746;2024-03-08T05:26:38;99832.81;;;7.23;100.00
11343;BME280;5726;42.160;24.746;2024-03-08T05:29:04;99837.97;;;7.44;100.00
11343;BME280;5726;42.160;24.746;2024-03-08T05:31:33;99840.97;;;7.58;100.00
11343;BME280;5726;42.160;24.746;2024-03-08T05:34:01;99839.59;;;7.45;100.00
11343;BME280;5726;42.160;24.746;2024-03-08T05:36:27;99843.84;;;7.41;100.00
11343;BME280;5726;42.160;24.746;2024-03-08T05:38:52;99845.53;;;7.62;100.00
11343;BME280;5726;42.160;24.746;2024-03-08T05:41:19;99849.81;;;7.63;100.00
11343;BME280;5726;42.160;24.746;2024-03-08T05:43:45;99856.78;;;7.69;100.00
11343;BME280;5726;42.160;24.746;2024-03-08T05:46:10;99852.28;;;7.79;100.00
11343;BME280;5726;42.160;24.746;2024-03-08T05:48:37;99857.06;;;7.77;100.00
11343;BME280;5726;42.160;24.746;2024-03-08T05:51:03;99859.97;;;7.71;100.00
11343;BME280;5726;42.160;24.746;2024-03-08T05:53:29;99863.19;;;7.73;100.00
11343;BME280;5726;42.160;24.746;2024-03-08T05:55:57;99863.16;;;7.63;100.00
11343;BME280;5726;42.160;24.746;2024-03-08T05:58:24;99862.91;;;7.69;100.00
11343;BME280;5726;42.160;24.746;2024-03-08T06:00:49;99865.88;;;7.78;100.00
11343;BME280;5726;42.160;24.746;2024-03-08T06:03:15;99866.91;;;7.67;100.00
11343;BME280;5726;42.160;24.746;2024-03-08T06:05:40;99870.75;;;7.96;100.00
11343;BME280;5726;42.160;24.746;2024-03-08T06:08:07;99874.69;;;7.78;100.00
11343;BME280;5726;42.160;24.746;2024-03-08T06:10:33;99869.38;;;7.93;100.00
11343;BME280;5726;42.160;24.746;2024-03-08T06:12:59;99874.19;;;7.96;100.00
11343;BME280;5726;42.160;24.746;2024-03-08T06:15:25;99880.31;;;7.82;100.00
11343;BME280;5726;42.160;24.746;2024-03-08T06:17:51;99888.38;;;7.97;100.00
11343;BME280;5726;42.160;24.746;2024-03-08T06:20:18;99878.22;;;7.99;100.00
11343;BME280;5726;42.160;24.746;2024-03-08T06:22:44;99882.22;;;7.91;100.00
11343;BME280;5726;42.160;24.746;2024-03-08T06:25:13;99880.91;;;8.04;100.00
11343;BME280;5726;42.160;24.746;2024-03-08T06:27:41;99882.78;;;8.08;100.00
11343;BME280;5726;42.160;24.746;2024-03-08T06:30:12;99893.41;;;7.88;100.00
11343;BME280;5726;42.160;24.746;2024-03-08T06:32:38;99883.81;;;7.92;100.00
11343;BME280;5726;42.160;24.746;2024-03-08T06:35:04;99889.66;;;7.84;100.00
11343;BME280;5726;42.160;24.746;2024-03-08T06:37:34;99898.69;;;7.78;100.00
11343;BME280;5726;42.160;24.746;2024-03-08T06:39:59;99894.25;;;8.04;100.00
11343;BME280;5726;42.160;24.746;2024-03-08T06:42:27;99895.22;;;7.78;100.00
11343;BME280;5726;42.160;24.746;2024-03-08T06:44:53;99902.25;;;8.04;100.00
11343;BME280;5726;42.160;24.746;2024-03-08T06:47:22;99904.41;;;8.02;100.00
11343;BME280;5726;42.160;24.746;2024-03-08T06:49:51;99901.28;;;8.19;100.00
11343;BME280;5726;42.160;24.746;2024-03-08T06:52:17;99900.75;;;8.27;100.00
11343;BME280;5726;42.160;24.746;2024-03-08T06:54:43;99901.81;;;8.21;100.00
11343;BME280;5726;42.160;24.746;2024-03-08T06:57:08;99902.34;;;8.18;100.00
11343;BME280;5726;42.160;24.746;2024-03-08T06:59:35;99904.41;;;8.02;100.00
11343;BME280;5726;42.160;24.746;2024-03-08T07:02:02;99911.63;;;8.06;100.00
11343;BME280;5726;42.160;24.746;2024-03-08T07:04:27;99910.66;;;8.22;100.00
11343;BME280;5726;42.160;24.746;2024-03-08T07:06:55;99925.63;;;8.33;100.00
11343;BME280;5726;42.160;24.746;2024-03-08T07:09:21;99910.69;;;8.47;100.00
11343;BME280;5726;42.160;24.746;2024-03-08T07:11:46;99910.88;;;8.15;100.00
11343;BME280;5726;42.160;24.746;2024-03-08T07:14:12;99918.41;;;8.23;100.00
11343;BME280;5726;42.160;24.746;2024-03-08T07:16:40;99920.75;;;8.15;100.00
11343;BME280;5726;42.160;24.746;2024-03-08T07:19:07;99916.13;;;7.96;100.00
11343;BME280;5726;42.160;24.746;2024-03-08T07:21:32;99922.25;;;7.86;100.00
11343;BME280;5726;42.160;24.746;2024-03-08T07:23:58;99916.69;;;8.03;100.00
11343;BME280;5726;42.160;24.746;2024-03-08T07:26:26;99925.59;;;8.23;100.00
11343;BME280;5726;42.160;24.746;2024-03-08T07:28:53;99927.19;;;8.29;100.00
11343;BME280;5726;42.160;24.746;2024-03-08T07:31:20;99925.34;;;8.34;100.00
11343;BME280;5726;42.160;24.746;2024-03-08T07:34:00;99925.75;;;8.02;100.00
11343;BME280;5726;42.160;24.746;2024-03-08T07:36:26;99929.03;;;8.13;100.00
11343;BME280;5726;42.160;24.746;2024-03-08T07:38:51;99927.47;;;8.27;100.00
11343;BME280;5726;42.160;24.746;2024-03-08T07:41:17;99925.84;;;8.21;100.00
11343;BME280;5726;42.160;24.746;2024-03-08T07:43:42;99923.09;;;8.07;100.00
11343;BME280;5726;42.160;24.746;2024-03-08T07:46:09;99933.59;;;8.23;100.00
11343;BME280;5726;42.160;24.746;2024-03-08T07:48:36;99935.47;;;8.17;100.00
11343;BME280;5726;42.160;24.746;2024-03-08T07:51:02;99945.81;;;8.04;100.00
11343;BME280;5726;42.160;24.746;2024-03-08T07:53:31;99938.84;;;8.08;100.00
11343;BME280;5726;42.160;24.746;2024-03-08T07:55:56;99936.53;;;8.21;100.00
11343;BME280;5726;42.160;24.746;2024-03-08T07:58:22;99937.56;;;8.15;100.00
11343;BME280;5726;42.160;24.746;2024-03-08T08:00:49;99938.69;;;8.24;100.00
11343;BME280;5726;42.160;24.746;2024-03-08T08:03:14;99938.16;;;8.22;100.00
11343;BME280;5726;42.160;24.746;2024-03-08T08:05:41;99931.50;;;8.35;100.00
11343;BME280;5726;42.160;24.746;2024-03-08T08:08:10;99942.47;;;8.38;100.00
11343;BME280;5726;42.160;24.746;2024-03-08T08:10:36;99944.66;;;8.56;100.00
11343;BME280;5726;42.160;24.746;2024-03-08T08:13:02;99939.81;;;8.43;100.00
11343;BME280;5726;42.160;24.746;2024-03-08T08:15:30;99948.34;;;8.40;100.00
11343;BME280;5726;42.160;24.746;2024-03-08T08:17:55;99950.00;;;8.56;100.00
11343;BME280;5726;42.160;24.746;2024-03-08T08:20:21;99950.00;;;8.61;100.00
11343;BME280;5726;42.160;24.746;2024-03-08T08:22:48;99955.31;;;8.41;100.00
11343;BME280;5726;42.160;24.746;2024-03-08T08:25:14;99957.47;;;8.64;100.00
11343;BME280;5726;42.160;24.746;2024-03-08T08:27:46;99950.81;;;8.71;100.00
11343;BME280;5726;42.160;24.746;2024-03-08T08:30:12;99952.41;;;8.62;100.00
11343;BME280;5726;42.160;24.746;2024-03-08T08:32:38;99957.47;;;8.64;100.00
11343;BME280;5726;42.160;24.746;2024-03-08T08:35:10;99948.13;;;8.71;100.00
11343;BME280;5726;42.160;24.746;2024-03-08T08:37:41;99954.28;;;8.67;100.00
11343;BME280;5726;42.160;24.746;2024-03-08T08:40:07;99951.88;;;8.70;100.00
11343;BME280;5726;42.160;24.746;2024-03-08T08:42:40;99953.75;;;8.65;100.00
11343;BME280;5726;42.160;24.746;2024-03-08T08:45:06;99952.66;;;8.61;100.00
11343;BME280;5726;42.160;24.746;2024-03-08T08:47:35;99947.88;;;8.68;100.00
11343;BME280;5726;42.160;24.746;2024-03-08T08:50:01;99955.13;;;8.87;100.00
11343;BME280;5726;42.160;24.746;2024-03-08T08:52:27;99948.41;;;8.85;100.00
11343;BME280;5726;42.160;24.746;2024-03-08T08:54:54;99956.44;;;8.90;100.00
11343;BME280;5726;42.160;24.746;2024-03-08T08:57:20;99948.97;;;9.11;100.00
11343;BME280;5726;42.160;24.746;2024-03-08T08:59:46;99955.91;;;8.93;100.00
11343;BME280;5726;42.160;24.746;2024-03-08T09:02:11;99950.00;;;8.96;100.00
11343;BME280;5726;42.160;24.746;2024-03-08T09:04:38;99946.56;;;8.90;100.00
11343;BME280;5726;42.160;24.746;2024-03-08T09:07:03;99951.88;;;9.00;100.00
11343;BME280;5726;42.160;24.746;2024-03-08T09:09:32;99943.88;;;9.05;100.00
11343;BME280;5726;42.160;24.746;2024-03-08T09:11:57;99943.06;;;9.24;100.00
11343;BME280;5726;42.160;24.746;2024-03-08T09:14:23;99943.34;;;9.13;100.00
11343;BME280;5726;42.160;24.746;2024-03-08T09:16:51;99959.13;;;9.24;100.00
11343;BME280;5726;42.160;24.746;2024-03-08T09:19:17;99943.06;;;9.14;100.00
11343;BME280;5726;42.160;24.746;2024-03-08T09:21:44;99946.81;;;9.23;100.00
11343;BME280;5726;42.160;24.746;2024-03-08T09:24:10;99940.91;;;9.31;100.00
11343;BME280;5726;42.160;24.746;2024-03-08T09:26:35;99939.03;;;9.42;100.00
11343;BME280;5726;42.160;24.746;2024-03-08T09:29:02;99945.16;;;9.52;100.00
11343;BME280;5726;42.160;24.746;2024-03-08T09:31:28;99953.44;;;9.51;100.00
11343;BME280;5726;42.160;24.746;2024-03-08T09:33:53;99951.34;;;9.43;100.00
11343;BME280;5726;42.160;24.746;2024-03-08T09:36:19;99959.56;;;9.76;100.00
11343;BME280;5726;42.160;24.746;2024-03-08T09:38:45;99959.06;;;9.59;100.00
11343;BME280;5726;42.160;24.746;2024-03-08T09:41:11;99958.78;;;9.60;100.00
11343;BME280;5726;42.160;24.746;2024-03-08T09:43:38;99959.59;;;9.61;100.00
11343;BME280;5726;42.160;24.746;2024-03-08T09:46:04;99967.03;;;9.84;100.00
11343;BME280;5726;42.160;24.746;2024-03-08T09:48:32;99963.06;;;9.76;100.00
11343;BME280;5726;42.160;24.746;2024-03-08T09:50:57;99957.63;;;10.06;100.00
11343;BME280;5726;42.160;24.746;2024-03-08T09:53:23;99957.94;;;9.80;100.00
11343;BME280;5726;42.160;24.746;2024-03-08T09:55:49;99955.25;;;9.80;100.00
11343;BME280;5726;42.160;24.746;2024-03-08T09:58:16;99956.31;;;9.99;100.00
11343;BME280;5726;42.160;24.746;2024-03-08T10:00:47;99961.63;;;10.13;100.00
11343;BME280;5726;42.160;24.746;2024-03-08T10:03:13;99958.97;;;10.03;100.00
11343;BME280;5726;42.160;24.746;2024-03-08T10:05:41;99955.03;;;10.39;100.00
11343;BME280;5726;42.160;24.746;2024-03-08T10:08:10;99958.88;;;10.23;100.00
11343;BME280;5726;42.160;24.746;2024-03-08T10:10:36;99947.59;;;10.26;100.00
11343;BME280;5726;42.160;24.746;2024-03-08T10:13:06;99948.91;;;10.34;100.00
11343;BME280;5726;42.160;24.746;2024-03-08T10:15:32;99945.94;;;10.35;100.00
11343;BME280;5726;42.160;24.746;2024-03-08T10:18:00;99948.91;;;10.34;100.00
11343;BME280;5726;42.160;24.746;2024-03-08T10:20:28;99946.50;;;10.32;100.00
11343;BME280;5726;42.160;24.746;2024-03-08T10:22:59;99946.97;;;10.44;100.00
11343;BME280;5726;42.160;24.746;2024-03-08T10:25:25;99948.38;;;10.75;100.00
11343;BME280;5726;42.160;24.746;2024-03-08T10:27:51;99946.63;;;10.55;100.00
11343;BME280;5726;42.160;24.746;2024-03-08T10:30:16;99949.03;;;10.57;100.00
11343;BME280;5726;42.160;24.746;2024-03-08T10:32:47;99950.03;;;10.71;100.00
11343;BME280;5726;42.160;24.746;2024-03-08T10:35:13;99944.28;;;10.44;100.00
11343;BME280;5726;42.160;24.746;2024-03-08T10:37:45;99947.47;;;10.46;100.00
11343;BME280;5726;42.160;24.746;2024-03-08T10:40:19;99939.13;;;10.96;100.00
11343;BME280;5726;42.160;24.746;2024-03-08T10:43:05;99943.38;;;10.96;100.00
11343;BME280;5726;42.160;24.746;2024-03-08T10:50:36;99934.88;;;10.51;100.00
11343;BME280;5726;42.160;24.746;2024-03-08T10:53:06;99932.50;;;10.83;100.00
11343;BME280;5726;42.160;24.746;2024-03-08T10:55:50;99938.22;;;10.72;100.00
11343;BME280;5726;42.160;24.746;2024-03-08T10:58:20;99922.25;;;10.90;100.00
11343;BME280;5726;42.160;24.746;2024-03-08T11:00:47;99927.22;;;10.73;100.00
11343;BME280;5726;42.160;24.746;2024-03-08T11:06:16;99905.53;;;10.65;100.00
11343;BME280;5726;42.160;24.746;2024-03-08T11:08:44;99914.16;;;10.95;100.00
11343;BME280;5726;42.160;24.746;2024-03-08T11:11:26;99905.69;;;11.11;100.00
11343;BME280;5726;42.160;24.746;2024-03-08T11:13:58;99911.47;;;10.95;100.00
11343;BME280;5726;42.160;24.746;2024-03-08T11:18:54;99895.91;;;11.25;100.00
11343;BME280;5726;42.160;24.746;2024-03-08T11:21:20;99893.94;;;11.07;100.00
11343;BME280;5726;42.160;24.746;2024-03-08T11:24:02;99897.56;;;11.21;100.00
11343;BME280;5726;42.160;24.746;2024-03-08T11:26:31;99909.47;;;11.10;100.00
11343;BME280;5726;42.160;24.746;2024-03-08T11:34:36;99910.81;;;11.36;100.00
11343;BME280;5726;42.160;24.746;2024-03-08T11:37:19;99907.59;;;11.39;100.00
11343;BME280;5726;42.160;24.746;2024-03-08T11:39:55;99909.06;;;11.55;100.00
11343;BME280;5726;42.160;24.746;2024-03-08T11:42:25;99907.50;;;11.44;100.00
11343;BME280;5726;42.160;24.746;2024-03-08T11:44:53;99900.03;;;11.41;100.00
11343;BME280;5726;42.160;24.746;2024-03-08T11:47:21;99907.81;;;11.43;100.00
11343;BME280;5726;42.160;24.746;2024-03-08T11:49:46;99899.88;;;11.33;100.00
11343;BME280;5726;42.160;24.746;2024-03-08T11:52:15;99898.59;;;11.77;100.00
11343;BME280;5726;42.160;24.746;2024-03-08T11:54:42;99890.78;;;11.80;100.00
11343;BME280;5726;42.160;24.746;2024-03-08T11:57:09;99886.66;;;11.88;100.00
11343;BME280;5726;42.160;24.746;2024-03-08T11:59:35;99890.38;;;11.68;100.00
11343;BME280;5726;42.160;24.746;2024-03-08T12:02:03;99889.84;;;11.66;100.00
11343;BME280;5726;42.160;24.746;2024-03-08T12:04:29;99897.13;;;11.66;100.00
11343;BME280;5726;42.160;24.746;2024-03-08T12:06:59;99889.50;;;11.49;100.00
11343;BME280;5726;42.160;24.746;2024-03-08T12:09:26;99898.91;;;11.52;100.00
11343;BME280;5726;42.160;24.746;2024-03-08T12:11:52;99889.41;;;11.59;100.00
11343;BME280;5726;42.160;24.746;2024-03-08T12:14:17;99895.19;;;11.43;100.00
11343;BME280;5726;42.160;24.746;2024-03-08T12:16:43;99900.88;;;11.13;100.00
11343;BME280;5726;42.160;24.746;2024-03-08T12:19:09;99899.06;;;11.32;100.00
11343;BME280;5726;42.160;24.746;2024-03-08T12:21:36;99902.28;;;11.06;100.00
11343;BME280;5726;42.160;24.746;2024-03-08T12:24:06;99901.16;;;11.12;100.00
11343;BME280;5726;42.160;24.746;2024-03-08T12:26:37;99904.53;;;10.89;100.00
11343;BME280;5726;42.160;24.746;2024-03-08T12:29:20;99891.81;;;11.04;100.00
11343;BME280;5726;42.160;24.746;2024-03-08T12:31:50;99877.59;;;11.04;100.00
11343;BME280;5726;42.160;24.746;2024-03-08T12:34:17;99879.28;;;11.23;100.00
11343;BME280;5726;42.160;24.746;2024-03-08T12:36:47;99885.53;;;10.86;100.00
11343;BME280;5726;42.160;24.746;2024-03-08T12:39:16;99876.41;;;10.87;100.00
11343;BME280;5726;42.160;24.746;2024-03-08T12:41:41;99882.34;;;10.84;100.00
11343;BME280;5726;42.160;24.746;2024-03-08T12:44:07;99882.28;;;10.89;100.00
11343;BME280;5726;42.160;24.746;2024-03-08T12:46:37;99892.94;;;10.98;100.00
11343;BME280;5726;42.160;24.746;2024-03-08T12:49:08;99877.56;;;11.09;100.00
11343;BME280;5726;42.160;24.746;2024-03-08T12:51:34;99865.44;;;11.11;100.00
11343;BME280;5726;42.160;24.746;2024-03-08T12:54:00;99871.34;;;11.13;100.00
11343;BME280;5726;42.160;24.746;2024-03-08T12:56:31;99869.09;;;11.20;100.00
11343;BME280;5726;42.160;24.746;2024-03-08T12:58:58;99872.31;;;11.22;100.00
11343;BME280;5726;42.160;24.746;2024-03-08T13:01:24;99883.34;;;11.44;100.00
11343;BME280;5726;42.160;24.746;2024-03-08T13:03:49;99873.69;;;11.20;100.00
11343;BME280;5726;42.160;24.746;2024-03-08T13:06:15;99874.38;;;11.30;100.00
11343;BME280;5726;42.160;24.746;2024-03-08T13:08:41;99876.50;;;11.33;100.00
11343;BME280;5726;42.160;24.746;2024-03-08T13:11:10;99869.09;;;11.20;100.00
11343;BME280;5726;42.160;24.746;2024-03-08T13:13:39;99876.78;;;11.32;100.00
11343;BME280;5726;42.160;24.746;2024-03-08T13:16:06;99874.19;;;11.50;100.00